createdAt,value
2022-11-23T00:00:59.825Z,3.13
2022-11-23T00:06:05.140Z,3.17
2022-11-23T00:11:09.343Z,3.00
2022-11-23T00:16:15.681Z,2.83
2022-11-23T00:21:22.149Z,2.47
2022-11-23T00:26:25.886Z,2.27
2022-11-23T00:31:29.559Z,2.28
2022-11-23T00:36:34.612Z,1.90
2022-11-23T00:41:38.386Z,1.75
2022-11-23T00:46:42.351Z,2.13
2022-11-23T00:51:47.553Z,1.98
2022-11-23T00:56:51.233Z,2.00
2022-11-23T01:01:54.936Z,2.10
2022-11-23T01:06:59.967Z,2.38
2022-11-23T01:12:03.641Z,2.40
2022-11-23T01:17:07.433Z,1.60
2022-11-23T01:22:13.293Z,2.30
2022-11-23T01:27:19.295Z,2.13
2022-11-23T01:32:22.993Z,2.45
2022-11-23T01:37:28.455Z,2.33
2022-11-23T01:42:48.744Z,2.85
2022-11-23T01:47:52.495Z,2.50
2022-11-23T01:52:58.366Z,2.22
2022-11-23T01:58:03.510Z,2.33
2022-11-23T02:03:10.913Z,2.75
2022-11-23T02:08:17.911Z,2.55
2022-11-23T02:13:22.327Z,2.58
2022-11-23T02:18:29.139Z,2.63
2022-11-23T02:23:43.418Z,2.60
2022-11-23T02:28:54.231Z,2.58
2022-11-23T02:33:58.108Z,3.03
2022-11-23T02:39:06.381Z,3.03
2022-11-23T02:44:26.743Z,2.20
2022-11-23T02:49:30.797Z,2.13
2022-11-23T02:54:35.365Z,2.22
2022-11-23T02:59:40.466Z,2.17
2022-11-23T03:04:44.216Z,1.75
2022-11-23T03:09:47.911Z,1.80
2022-11-23T03:14:52.989Z,1.67
2022-11-23T03:19:58.426Z,1.95
2022-11-23T03:25:02.705Z,2.20
2022-11-23T03:30:09.735Z,1.73
2022-11-23T03:35:14.493Z,1.30
2022-11-23T03:40:47.166Z,1.55
2022-11-23T03:46:03.559Z,0.88
2022-11-23T03:51:07.385Z,1.10
2022-11-23T03:56:11.360Z,1.20
2022-11-23T04:01:21.106Z,1.33
2022-11-23T04:06:31.194Z,1.00
2022-11-23T04:11:47.080Z,1.30
2022-11-23T04:16:52.307Z,1.15
2022-11-23T04:21:56.188Z,1.42
2022-11-23T04:27:00.283Z,1.20
2022-11-23T04:32:05.635Z,1.25
2022-11-23T04:37:13.309Z,1.05
2022-11-23T04:42:18.984Z,0.90
2022-11-23T04:47:32.018Z,1.00
2022-11-23T04:52:40.495Z,1.00
2022-11-23T04:57:53.460Z,1.15
2022-11-23T05:03:01.170Z,0.80
2022-11-23T05:08:10.898Z,1.02
2022-11-23T05:13:28.537Z,1.17
2022-11-23T05:18:35.368Z,1.58
2022-11-23T05:23:39.059Z,0.77
2022-11-23T05:28:42.978Z,1.13
2022-11-23T05:33:52.259Z,0.95
2022-11-23T05:39:07.629Z,1.40
2022-11-23T05:44:13.465Z,1.17
2022-11-23T05:49:18.847Z,1.02
2022-11-23T05:54:22.749Z,1.02
2022-11-23T05:59:38.153Z,1.48
2022-11-23T06:04:43.780Z,1.25
2022-11-23T06:09:52.065Z,1.48
2022-11-23T06:14:55.770Z,1.13
2022-11-23T06:20:03.291Z,2.00
2022-11-23T06:25:08.014Z,1.20
2022-11-23T06:30:17.127Z,1.00
2022-11-23T06:35:23.051Z,1.30
2022-11-23T06:40:27.441Z,1.27
2022-11-23T06:45:31.503Z,1.52
2022-11-23T06:50:46.213Z,1.63
2022-11-23T06:55:51.172Z,1.50
2022-11-23T07:01:01.227Z,1.48
2022-11-23T07:06:09.739Z,1.33
2022-11-23T07:11:14.060Z,1.23
2022-11-23T07:16:17.842Z,0.90
2022-11-23T07:21:23.168Z,1.58
2022-11-23T07:26:27.240Z,1.30
2022-11-23T07:31:31.162Z,1.17
2022-11-23T07:36:36.754Z,1.35
2022-11-23T07:41:40.493Z,1.40
2022-11-23T07:46:55.927Z,1.92
2022-11-23T07:52:00.951Z,2.05
2022-11-23T07:57:04.776Z,1.27
2022-11-23T08:02:11.794Z,0.93
2022-11-23T08:07:16.983Z,1.15
2022-11-23T08:12:20.700Z,1.50
2022-11-23T08:17:24.371Z,1.35
2022-11-23T08:22:29.355Z,0.95
2022-11-23T08:27:33.102Z,1.50
2022-11-23T08:32:37.285Z,0.93
2022-11-23T08:37:43.103Z,0.93
2022-11-23T08:42:47.834Z,1.63
2022-11-23T08:47:53.066Z,1.92
2022-11-23T08:52:59.137Z,1.48
2022-11-23T08:58:02.974Z,1.48
2022-11-23T09:03:06.626Z,1.35
2022-11-23T09:08:11.856Z,1.38
2022-11-23T09:13:15.636Z,1.27
2022-11-23T09:18:19.464Z,1.42
2022-11-23T09:23:26.977Z,1.55
2022-11-23T09:28:31.476Z,1.75
2022-11-23T09:33:35.216Z,1.20
2022-11-23T09:38:57.291Z,1.67
2022-11-23T09:44:05.603Z,1.50
2022-11-23T09:49:16.319Z,1.05
2022-11-23T09:54:29.456Z,1.45
2022-11-23T09:59:41.055Z,1.40
2022-11-23T10:04:45.428Z,1.00
2022-11-23T10:09:58.648Z,1.30
2022-11-23T10:15:10.867Z,1.13
2022-11-23T10:20:27.494Z,1.23
2022-11-23T10:25:39.250Z,1.20
2022-11-23T10:30:43.617Z,0.93
2022-11-23T10:35:47.352Z,1.00
2022-11-23T10:41:02.374Z,0.75
2022-11-23T10:46:28.086Z,0.88
2022-11-23T10:51:35.043Z,0.70
2022-11-23T10:56:48.810Z,1.20
2022-11-23T11:02:01.884Z,0.70
2022-11-23T11:07:24.124Z,0.73
2022-11-23T11:12:31.515Z,0.68
2022-11-23T11:17:36.344Z,0.77
2022-11-23T11:22:46.262Z,0.85
2022-11-23T11:27:54.458Z,0.68
2022-11-23T11:33:05.024Z,1.13
2022-11-23T11:38:17.407Z,0.80
2022-11-23T11:43:37.623Z,0.70
2022-11-23T11:48:49.058Z,0.65
2022-11-23T11:53:58.599Z,0.70
2022-11-23T11:59:12.007Z,0.70
2022-11-23T12:04:21.402Z,0.60
2022-11-23T12:09:31.808Z,0.90
2022-11-23T12:14:38.305Z,0.40
2022-11-23T12:19:49.889Z,0.50
2022-11-23T12:25:11.702Z,0.60
2022-11-23T12:30:26.147Z,1.27
2022-11-23T12:35:58.951Z,0.65
2022-11-23T12:41:17.538Z,0.90
2022-11-23T12:46:29.866Z,0.52
2022-11-23T12:51:42.344Z,0.70
2022-11-23T12:56:56.642Z,0.70
2022-11-23T13:02:04.871Z,0.70
2022-11-23T13:07:47.577Z,0.50
2022-11-23T13:13:22.304Z,0.88
2022-11-23T13:18:45.023Z,0.80
2022-11-23T13:23:48.827Z,0.63
2022-11-23T13:28:53.968Z,0.47
2022-11-23T13:34:00.265Z,0.50
2022-11-23T13:39:04.962Z,0.53
2022-11-23T13:44:13.548Z,0.38
2022-11-23T13:49:33.056Z,0.77
2022-11-23T13:54:38.334Z,0.55
2022-11-23T13:59:41.993Z,0.80
2022-11-23T14:04:48.323Z,0.70
2022-11-23T14:09:55.587Z,0.60
2022-11-23T14:15:07.420Z,0.50
2022-11-23T14:20:54.353Z,0.82
2022-11-23T14:26:13.834Z,0.47
2022-11-23T14:31:28.795Z,1.13
2022-11-23T14:36:42.508Z,0.77
2022-11-23T14:41:51.733Z,0.90
2022-11-23T14:47:02.538Z,0.70
2022-11-23T14:52:08.055Z,0.98
2022-11-23T14:57:15.224Z,0.70
2022-11-23T15:07:28.915Z,0.80
2022-11-23T15:12:43.372Z,0.82
2022-11-23T15:17:53.136Z,0.70
2022-11-23T15:22:58.225Z,0.52
2022-11-23T15:28:01.924Z,0.60
2022-11-23T15:33:12.009Z,0.68
2022-11-23T15:38:23.382Z,0.80
2022-11-23T15:43:28.081Z,0.60
2022-11-23T15:48:33.895Z,1.08
2022-11-23T15:53:50.913Z,0.80
2022-11-23T15:58:55.917Z,0.98
2022-11-23T16:04:03.538Z,1.00
2022-11-23T16:09:53.405Z,0.90
2022-11-23T16:14:59.075Z,1.23
2022-11-23T16:20:05.966Z,1.10
2022-11-23T16:25:25.985Z,1.38
2022-11-23T16:30:38.845Z,1.10
2022-11-23T16:35:42.848Z,1.88
2022-11-23T16:40:49.347Z,1.83
2022-11-23T16:45:53.214Z,1.60
2022-11-23T16:50:58.307Z,1.70
2022-11-23T16:56:04.027Z,1.40
2022-11-23T17:01:10.946Z,2.10
2022-11-23T17:06:15.535Z,2.45
2022-11-23T17:11:23.288Z,1.83
2022-11-23T17:16:27.762Z,1.80
2022-11-23T17:21:31.783Z,1.80
2022-11-23T17:26:38.927Z,1.80
2022-11-23T17:36:50.684Z,1.90
2022-11-23T17:42:01.552Z,2.53
2022-11-23T17:47:15.829Z,2.30
2022-11-23T17:52:19.585Z,2.13
2022-11-23T17:57:26.859Z,1.90
2022-11-23T18:02:30.626Z,1.90
2022-11-23T18:07:34.359Z,1.63
2022-11-23T18:12:39.745Z,1.90
2022-11-23T18:17:43.508Z,2.10
2022-11-23T18:22:47.223Z,2.20
2022-11-23T18:27:54.276Z,2.15
2022-11-23T18:32:58.084Z,2.53
2022-11-23T18:38:01.735Z,2.22
2022-11-23T18:43:06.728Z,2.22
2022-11-23T18:48:10.499Z,2.63
2022-11-23T18:53:14.159Z,2.50
2022-11-23T18:58:19.167Z,2.40
2022-11-23T19:03:22.959Z,2.90
2022-11-23T19:08:26.608Z,2.85
2022-11-23T19:13:31.681Z,3.08
2022-11-23T19:18:35.378Z,2.65
2022-11-23T19:23:39.140Z,3.00
2022-11-23T19:28:45.719Z,3.22
2022-11-23T19:33:50.697Z,2.80
2022-11-23T19:38:56.442Z,2.53
2022-11-23T19:44:02.234Z,2.90
2022-11-23T19:49:07.183Z,3.03
2022-11-23T19:54:10.832Z,3.03
2022-11-23T19:59:15.895Z,2.92
2022-11-23T20:04:19.594Z,3.00
2022-11-23T20:09:24.069Z,3.08
2022-11-23T20:14:29.246Z,3.47
2022-11-23T20:19:33.110Z,3.10
2022-11-23T20:24:36.981Z,3.05
2022-11-23T20:29:41.970Z,3.90
2022-11-23T20:34:45.667Z,2.45
2022-11-23T20:39:49.301Z,2.90
2022-11-23T20:44:54.312Z,2.45
2022-11-23T20:49:57.977Z,2.67
2022-11-23T20:55:01.655Z,2.58
2022-11-23T21:00:08.231Z,3.47
2022-11-23T21:05:12.102Z,2.72
2022-11-23T21:10:30.268Z,3.47
2022-11-23T21:15:35.404Z,2.67
2022-11-23T21:20:39.938Z,2.72
2022-11-23T21:25:43.783Z,3.17
2022-11-23T21:30:48.821Z,2.55
2022-11-23T21:35:52.481Z,2.72
2022-11-23T21:40:58.357Z,2.58
2022-11-23T21:46:05.850Z,3.20
2022-11-23T21:51:12.453Z,3.33
2022-11-23T21:56:19.859Z,2.55
2022-11-23T22:01:26.867Z,2.60
2022-11-23T22:06:30.790Z,2.35
2022-11-23T22:11:36.054Z,2.10
2022-11-23T22:16:42.647Z,2.22
2022-11-23T22:21:47.150Z,2.92
2022-11-23T22:26:50.904Z,2.47
2022-11-23T22:31:56.092Z,2.47
2022-11-23T22:36:59.904Z,3.38
2022-11-23T22:42:03.767Z,2.78
2022-11-23T22:47:08.778Z,1.77
2022-11-23T22:52:12.776Z,2.67
2022-11-23T22:57:16.507Z,2.33
2022-11-23T23:02:22.317Z,2.22
2022-11-23T23:07:26.254Z,2.58
2022-11-23T23:12:29.973Z,2.50
2022-11-23T23:17:35.402Z,2.55
2022-11-23T23:22:39.978Z,2.15
2022-11-23T23:27:43.717Z,2.45
2022-11-23T23:32:49.267Z,2.38
2022-11-23T23:37:53.581Z,1.50
2022-11-23T23:42:59.079Z,1.98
2022-11-23T23:48:04.227Z,2.25
2022-11-23T23:53:07.987Z,1.85
2022-11-23T23:58:11.735Z,2.40
